Cushing, MN (56443)

11:18 AM CST on March 06, 2015 (GMT -0600)
Riverwood Court | Change Station
CLOSE
Current Station
Personal Weather Station
Location: Randall, MN
Elevation: 1173 ft
Nearby Weather Stations

Elev 1173 ft 46.09 °N, 94.49 °W | Updated 6 seconds ago

Clear
Clear
30.9 °F
Feels Like 31 °F
N
0.0
Wind Variable Wind from NW
Gusts 5.0 mph

Today
High -- | Low -- °F
--% Chance of Precip.
Yesterday
High -- | Low -- °F
Precip. -- in
6:48 AM 6:11 PM
Full, 99% visible
Pressure 30.04 in
Visibility 10.0 miles
Clouds Clear
Windchill 31 °F
Dew Point 16 °F
Humidity 53%
Rainfall in
Snow Depth Not available.
UV 4 out of 12
Pollen .40 out of 12
Air Quality Not available.
Flu Activity Not available.
METAR KSAZ 061653Z AUTO 31007KT 10SM CLR M04/M12 A3004 RMK AO2

More Conditions Fewer Conditions

Pressure 30.04 in
Visibility 10.0 miles
Clouds Clear
Windchill 31 °F
Dew Point 16 °F
Humidity 53%
Rainfall in
Snow Depth Not available.
UV 4 out of 12
Pollen .40 out of 12
Air Quality Not available.
Flu Activity Not available.
METAR KSAZ 061653Z AUTO 31007KT 10SM CLR M04/M12 A3004 RMK AO2

More Conditions Fewer Conditions

10-Day Weather Forecast

Almanac

Astronomy

Mar. 06, 2015 Rise Set
Actual Time
Civil Twilight
Nautical Twilight
Astronomical Twilight
Moon
Length of Visible Light
Length of Day
Tomorrow will be .
, % of the Moon is Illuminated

Today's Extremes

State Highs State Lows

Community

WunderPhotos

Upload Photos

1,803,338 photos uploaded!

WunderBlogs® & News

Nearby

Air Quality

  Air Quality AQ Index Pollutant
Not available.

Snow Depth

Station Depth Elevation

Earthquake Activity

City Distance Mag. Time & Date
Minimum magnitude displayed is 2.5.

Coastal Water Temperatures

Place Temperature

Nearby Weather Stations